Time;durP1;ratioP1;P1;durP2;ratioP2;P2;SDS_P1;SDS_P2;PMS_P1;PMS_P2;Temp;Humidity;BMP_temperature;BMP_pressure;BME280_temperature;BME280_humidity;BME280_pressure;Samples;Min_cycle;Max_cycle;Signal;HPM_P1;HPM_P2
2023/01/31 00:01:07;;;;;;;43.35;24.73;;;;;;;-1.68;100.00;92632.28;5069896;28;20437;-67
2023/01/31 00:03:34;;;;;;;46.33;26.70;;;;;;;-1.63;100.00;92632.63;5070360;28;20048;-68
2023/01/31 00:06:14;;;;;;;49.15;27.50;;;;;;;-1.63;100.00;92628.41;5070080;28;20094;-68
2023/01/31 00:08:40;;;;;;;48.20;27.30;;;;;;;-1.55;100.00;92630.16;5070359;28;20053;-68
2023/01/31 00:11:07;;;;;;;45.95;24.83;;;;;;;-1.52;100.00;92626.56;5069627;28;20040;-70
2023/01/31 00:13:34;;;;;;;40.80;22.90;;;;;;;-1.51;100.00;92613.81;5069726;28;20071;-70
2023/01/31 00:16:01;;;;;;;39.72;22.02;;;;;;;-1.55;100.00;92615.06;5070054;28;20052;-69
2023/01/31 00:18:30;;;;;;;37.30;20.25;;;;;;;-1.61;100.00;92623.22;5069574;28;20508;-69
2023/01/31 00:20:56;;;;;;;37.80;19.52;;;;;;;-1.54;100.00;92615.84;5069912;28;20044;-69
2023/01/31 00:23:23;;;;;;;35.90;21.13;;;;;;;-1.51;100.00;92626.44;5069396;28;20106;-69
2023/01/31 00:25:50;;;;;;;41.10;22.65;;;;;;;-1.80;100.00;92624.22;5069828;28;20094;-69
2023/01/31 00:28:16;;;;;;;46.42;27.98;;;;;;;-1.91;100.00;92621.00;5069195;28;20398;-69
2023/01/31 00:30:43;;;;;;;45.80;25.52;;;;;;;-1.94;100.00;92628.06;5069444;28;20048;-69
2023/01/31 00:33:10;;;;;;;49.33;27.05;;;;;;;-1.87;100.00;92613.94;5069363;28;20101;-69
2023/01/31 00:35:40;;;;;;;51.75;29.05;;;;;;;-1.84;100.00;92612.84;5069535;28;20037;-69
2023/01/31 00:38:07;;;;;;;49.55;29.17;;;;;;;-1.83;100.00;92616.94;5069395;28;20048;-69
2023/01/31 00:40:34;;;;;;;60.00;31.00;;;;;;;-2.46;100.00;92627.09;5069402;28;20052;-69
2023/01/31 00:43:01;;;;;;;52.55;28.58;;;;;;;-2.39;100.00;92617.22;5069110;28;20048;-69
2023/01/31 00:45:28;;;;;;;55.03;30.42;;;;;;;-2.25;100.00;92616.69;5069399;28;20052;-69
2023/01/31 00:47:54;;;;;;;49.45;28.73;;;;;;;-2.19;100.00;92613.59;5068921;28;20044;-69
2023/01/31 00:50:21;;;;;;;60.80;30.40;;;;;;;-2.00;100.00;92613.56;5069353;28;20497;-69
2023/01/31 00:52:49;;;;;;;53.80;30.50;;;;;;;-1.93;100.00;92609.50;5068584;28;20052;-69
2023/01/31 00:55:16;;;;;;;50.33;29.27;;;;;;;-1.82;100.00;92609.25;5069235;28;20045;-69
2023/01/31 00:57:43;;;;;;;51.95;31.33;;;;;;;-1.77;100.00;92616.34;5068412;28;20653;-70
2023/01/31 01:00:11;;;;;;;49.95;29.23;;;;;;;-1.90;100.00;92609.22;5069171;28;20049;-69
2023/01/31 01:02:37;;;;;;;53.10;30.88;;;;;;;-1.78;100.00;92629.88;5069033;28;20048;-69
2023/01/31 01:05:05;;;;;;;54.22;30.15;;;;;;;-2.02;100.00;92594.38;5068961;28;20056;-69
2023/01/31 01:07:31;;;;;;;50.35;28.65;;;;;;;-1.83;100.00;92622.00;5069356;28;20114;-69
2023/01/31 01:09:59;;;;;;;56.22;32.10;;;;;;;-1.93;100.00;92648.06;5069331;28;20098;-69
2023/01/31 01:12:26;;;;;;;69.70;37.50;;;;;;;-1.93;100.00;92645.56;5069035;28;20401;-69
2023/01/31 01:14:53;;;;;;;54.83;34.00;;;;;;;-2.05;100.00;92637.44;5069278;28;20048;-69
2023/01/31 01:17:20;;;;;;;58.55;33.17;;;;;;;-2.19;100.00;92646.31;5055320;28;20052;-69
2023/01/31 01:19:46;;;;;;;56.40;32.38;;;;;;;-2.44;100.00;92645.31;5068714;28;20072;-69
2023/01/31 01:22:14;;;;;;;63.88;35.58;;;;;;;-2.24;100.00;92645.16;5055474;28;20045;-69
2023/01/31 01:24:42;;;;;;;64.70;36.08;;;;;;;-2.24;100.00;92650.97;5068826;28;20045;-69
2023/01/31 01:27:10;;;;;;;66.57;37.13;;;;;;;-2.05;100.00;92656.78;5068811;28;20048;-69
2023/01/31 01:29:37;;;;;;;67.82;38.95;;;;;;;-1.97;100.00;92651.00;5069175;28;20053;-69
2023/01/31 01:32:05;;;;;;;79.03;46.65;;;;;;;-2.00;100.00;92634.47;5068277;28;20386;-69
2023/01/31 01:34:32;;;;;;;76.03;43.88;;;;;;;-1.83;100.00;92634.56;5069157;28;20105;-69
2023/01/31 01:36:59;;;;;;;85.07;46.10;;;;;;;-1.76;100.00;92640.63;5068575;28;20095;-69
2023/01/31 01:39:28;;;;;;;88.95;49.28;;;;;;;-1.71;100.00;92645.97;5068733;28;20048;-69
2023/01/31 01:41:56;;;;;;;85.72;46.95;;;;;;;-2.04;100.00;92646.56;5064279;28;20085;-68
2023/01/31 01:44:55;;;;;;;85.93;46.72;;;;;;;-1.94;100.00;92646.47;5060254;28;20291;-68
2023/01/31 01:47:35;;;;;;;83.30;44.25;;;;;;;-1.96;100.00;92640.78;5006186;28;20058;-68
2023/01/31 01:50:09;;;;;;;85.78;45.75;;;;;;;-1.88;100.00;92620.72;5058632;28;20122;-69
2023/01/31 01:52:40;;;;;;;94.03;51.83;;;;;;;-2.11;100.00;92622.13;5048142;28;20057;-70
2023/01/31 01:55:14;;;;;;;84.75;46.47;;;;;;;-2.10;100.00;92652.19;5048258;28;20395;-69
2023/01/31 01:57:44;;;;;;;86.32;46.92;;;;;;;-2.08;100.00;92659.59;5048174;28;20102;-69
2023/01/31 02:00:15;;;;;;;86.63;46.97;;;;;;;-2.22;100.00;92665.94;5048138;28;20486;-70
2023/01/31 02:02:44;;;;;;;81.57;47.17;;;;;;;-2.19;100.00;92665.63;5048481;28;20037;-70
2023/01/31 02:05:13;;;;;;;89.43;46.97;;;;;;;-2.09;100.00;92658.03;5052189;28;20119;-69
2023/01/31 02:07:40;;;;;;;79.13;45.42;;;;;;;-2.05;100.00;92655.06;5052377;28;20044;-70
2023/01/31 02:10:12;;;;;;;82.78;44.28;;;;;;;-1.91;100.00;92651.22;5051744;28;20045;-69
2023/01/31 02:12:39;;;;;;;88.47;46.40;;;;;;;-1.85;100.00;92644.00;5051985;28;20049;-69
2023/01/31 02:15:07;;;;;;;79.97;43.75;;;;;;;-1.86;100.00;92647.47;5051587;28;20091;-70
2023/01/31 02:17:35;;;;;;;84.53;46.58;;;;;;;-1.94;100.00;92659.06;5052157;28;20103;-70
2023/01/31 02:20:24;;;;;;;80.03;43.85;;;;;;;-1.88;100.00;92655.16;5051957;28;20041;-70
2023/01/31 02:23:06;;;;;;;82.82;45.97;;;;;;;-1.95;100.00;92656.69;5051600;28;20059;-70
2023/01/31 02:25:51;;;;;;;85.78;46.95;;;;;;;-1.88;100.00;92657.69;5051848;28;20041;-70
2023/01/31 02:28:35;;;;;;;;;;;;;;;-1.81;100.00;92648.59;5066794;28;20052;-70
2023/01/31 02:31:34;;;;;;;83.00;45.83;;;;;;;-1.80;100.00;92655.22;5072213;28;19921;-72
2023/01/31 02:34:09;;;;;;;85.63;47.35;;;;;;;-1.76;100.00;92668.31;5072055;28;20049;-72
2023/01/31 02:36:49;;;;;;;95.37;51.97;;;;;;;-1.71;100.00;92665.34;5072066;28;20421;-70
2023/01/31 02:39:35;;;;;;;81.72;45.75;;;;;;;-1.67;100.00;92666.63;5071641;28;20066;-70
2023/01/31 02:42:11;;;;;;;91.90;48.20;;;;;;;-1.66;100.00;92679.06;5072018;28;20102;-70
2023/01/31 02:44:59;;;;;;;87.80;46.03;;;;;;;-1.61;100.00;92678.63;5071647;28;20048;-70
2023/01/31 02:47:40;;;;;;;86.47;48.78;;;;;;;-1.61;100.00;92674.38;5071611;28;20049;-70
2023/01/31 02:50:14;;;;;;;89.05;48.25;;;;;;;-1.58;100.00;92675.78;5071815;28;20052;-70
2023/01/31 02:52:48;;;;;;;90.35;47.92;;;;;;;-1.55;100.00;92665.44;5071128;28;20101;-70
2023/01/31 02:58:05;;;;;;;87.88;48.90;;;;;;;-1.56;100.00;92680.69;5071147;28;20071;-70
2023/01/31 03:00:34;;;;;;;88.63;48.30;;;;;;;-1.61;100.00;92696.25;5071823;28;20052;-70
2023/01/31 03:03:05;;;;;;;93.68;48.00;;;;;;;-1.59;100.00;92706.19;5071226;28;20106;-70
2023/01/31 03:05:33;;;;;;;85.53;49.42;;;;;;;-1.57;100.00;92712.63;5071174;28;20459;-69
2023/01/31 03:08:03;;;;;;;92.85;49.85;;;;;;;-1.56;100.00;92714.25;5044775;28;20068;-69
2023/01/31 03:10:59;;;;;;;93.93;51.75;;;;;;;-1.76;100.00;92719.44;5070801;28;20076;-69
2023/01/31 03:13:34;;;;;;;;;;;;;;;-1.75;100.00;92725.28;5065772;28;20500;-69
2023/01/31 03:19:04;;;;;;;92.72;47.72;;;;;;;-2.11;100.00;92717.75;5070800;28;20051;-69
2023/01/31 03:21:39;;;;;;;65.30;37.63;;;;;;;-2.37;100.00;92724.28;5071116;28;20090;-69
2023/01/31 03:24:07;;;;;;;96.22;52.90;;;;;;;-2.31;100.00;92720.44;5070660;28;20048;-69
2023/01/31 03:26:35;;;;;;;54.38;32.08;;;;;;;-2.29;100.00;92711.81;5058428;28;20099;-70
2023/01/31 03:29:03;;;;;;;73.65;42.45;;;;;;;-2.20;100.00;92712.66;5071062;28;20048;-70
2023/01/31 03:31:37;;;;;;;89.47;43.60;;;;;;;-2.24;100.00;92723.16;5070965;28;20501;-70
2023/01/31 03:34:06;;;;;;;64.75;35.72;;;;;;;-2.33;100.00;92733.16;5045440;28;20509;-70
2023/01/31 03:36:40;;;;;;;54.90;28.65;;;;;;;-2.24;100.00;92740.75;5070689;28;20045;-69
2023/01/31 03:39:16;;;;;;;76.88;42.20;;;;;;;-2.12;100.00;92732.09;5070648;28;20500;-69
2023/01/31 03:41:50;;;;;;;;;;;;;;;-2.07;100.00;92726.59;5070772;28;20817;-69
2023/01/31 03:44:25;;;;;;;48.53;26.48;;;;;;;-2.11;100.00;92756.31;5070978;28;19920;-70
2023/01/31 03:46:57;;;;;;;133.25;74.50;;;;;;;-2.29;100.00;92731.13;5070204;28;20055;-70
2023/01/31 03:49:27;;;;;;;43.33;23.65;;;;;;;-2.15;100.00;92738.19;5070178;28;20051;-70
2023/01/31 03:52:04;;;;;;;63.33;35.33;;;;;;;-2.12;100.00;92734.59;5070673;28;20118;-70
2023/01/31 03:54:36;;;;;;;63.40;38.03;;;;;;;-2.17;100.00;92737.53;5070465;28;20408;-69
2023/01/31 03:57:08;;;;;;;36.03;21.15;;;;;;;-2.11;100.00;92745.44;5070381;28;20052;-70
2023/01/31 03:59:39;;;;;;;30.55;18.77;;;;;;;-2.05;100.00;92749.88;5070156;28;20443;-69
2023/01/31 04:02:10;;;;;;;32.03;19.50;;;;;;;-2.09;100.00;92734.28;5070146;28;20538;-70
2023/01/31 04:04:42;;;;;;;27.65;16.60;;;;;;;-2.03;100.00;92743.00;5070288;28;20503;-70
2023/01/31 04:07:10;;;;;;;32.03;18.55;;;;;;;-2.00;100.00;92744.44;5056937;28;20127;-69
2023/01/31 04:09:38;;;;;;;31.38;17.77;;;;;;;-2.03;100.00;92745.53;5044026;28;20048;-69
2023/01/31 04:12:05;;;;;;;33.58;19.60;;;;;;;-2.08;100.00;92727.53;5069652;28;20094;-70
2023/01/31 04:14:32;;;;;;;33.45;18.38;;;;;;;-1.94;100.00;92749.66;5070473;28;20048;-69
2023/01/31 04:16:59;;;;;;;27.38;15.88;;;;;;;-1.90;100.00;92750.19;5069856;28;20095;-70
2023/01/31 04:19:26;;;;;;;24.13;15.15;;;;;;;-1.98;100.00;92762.69;5069947;28;20120;-69
2023/01/31 04:21:52;;;;;;;20.48;12.20;;;;;;;-2.19;100.00;92761.25;5069734;28;20098;-69
2023/01/31 04:24:20;;;;;;;19.50;12.52;;;;;;;-2.15;100.00;92767.59;5061841;28;20505;-69
2023/01/31 04:26:47;;;;;;;19.77;11.60;;;;;;;-2.18;100.00;92761.09;5064711;28;20052;-70
2023/01/31 04:29:14;;;;;;;18.92;11.85;;;;;;;-2.17;100.00;92764.44;5069710;28;20048;-69
2023/01/31 04:31:41;;;;;;;18.52;11.63;;;;;;;-2.18;100.00;92750.28;5069075;28;20559;-70
2023/01/31 04:34:08;;;;;;;18.17;11.55;;;;;;;-2.12;100.00;92761.47;5069495;28;20090;-70
2023/01/31 04:36:35;;;;;;;21.90;12.43;;;;;;;-2.17;100.00;92771.97;5069523;28;20094;-69
2023/01/31 04:39:02;;;;;;;19.27;11.93;;;;;;;-2.15;100.00;92770.91;5069581;28;20101;-69
2023/01/31 04:41:30;;;;;;;21.55;13.25;;;;;;;-2.17;100.00;92774.50;5068899;28;20143;-69
2023/01/31 04:43:57;;;;;;;16.08;10.40;;;;;;;-2.18;100.00;92765.38;5069144;28;20090;-69
2023/01/31 04:46:23;;;;;;;18.70;10.93;;;;;;;-2.13;100.00;92770.75;5069246;28;20121;-69
2023/01/31 04:48:50;;;;;;;18.77;10.27;;;;;;;-2.15;100.00;92773.41;5069787;28;20094;-69
2023/01/31 04:51:17;;;;;;;19.10;11.48;;;;;;;-2.17;100.00;92775.28;5069145;28;20044;-69
2023/01/31 04:53:44;;;;;;;16.85;11.30;;;;;;;-2.24;100.00;92764.19;5069102;28;20500;-69
2023/01/31 04:56:11;;;;;;;19.55;11.43;;;;;;;-2.10;100.00;92783.03;5069413;28;20044;-69
2023/01/31 04:58:40;;;;;;;22.13;12.90;;;;;;;-2.12;100.00;92777.38;5069206;28;20052;-70
2023/01/31 05:01:07;;;;;;;23.08;13.40;;;;;;;-2.20;100.00;92787.34;5068343;28;20041;-69
2023/01/31 05:03:34;;;;;;;17.83;11.15;;;;;;;-2.25;100.00;92771.88;5069208;28;20045;-69
2023/01/31 05:06:00;;;;;;;18.67;12.32;;;;;;;-2.34;100.00;92751.69;5069087;28;20044;-69
2023/01/31 05:08:28;;;;;;;16.52;10.85;;;;;;;-2.18;100.00;92781.25;5068809;28;20242;-69
2023/01/31 05:10:57;;;;;;;15.98;9.93;;;;;;;-2.18;100.00;92780.47;5069173;28;20051;-69
2023/01/31 05:13:25;;;;;;;15.70;9.57;;;;;;;-2.20;100.00;92777.28;5069230;28;20121;-70
2023/01/31 05:15:53;;;;;;;18.08;11.50;;;;;;;-2.15;100.00;92770.09;5068889;28;20055;-69
2023/01/31 05:18:19;;;;;;;15.93;10.25;;;;;;;-2.38;100.00;92737.81;5069163;28;20052;-70
2023/01/31 05:20:48;;;;;;;16.10;10.60;;;;;;;-2.12;100.00;92769.03;5069084;28;20101;-70
2023/01/31 05:23:15;;;;;;;19.48;11.88;;;;;;;-2.21;100.00;92781.53;5069057;28;20056;-69
2023/01/31 05:25:43;;;;;;;19.27;11.77;;;;;;;-2.15;100.00;92790.22;5068730;28;20090;-69
2023/01/31 05:28:10;;;;;;;19.77;11.60;;;;;;;-2.18;100.00;92776.22;5068925;28;20554;-70
2023/01/31 05:30:37;;;;;;;21.20;13.50;;;;;;;-2.05;100.00;92775.06;5067603;28;20106;-70
2023/01/31 05:33:05;;;;;;;14.60;9.32;;;;;;;-2.05;100.00;92770.81;5069223;28;20060;-70
2023/01/31 05:35:32;;;;;;;16.02;10.35;;;;;;;-1.91;100.00;92782.13;5047321;28;20044;-70
2023/01/31 05:37:59;;;;;;;17.08;10.73;;;;;;;-1.95;100.00;92782.56;5068455;28;20048;-69
2023/01/31 05:40:26;;;;;;;15.65;10.80;;;;;;;-2.02;100.00;92788.16;5072238;28;20447;-69
2023/01/31 05:42:55;;;;;;;17.75;11.32;;;;;;;-2.05;100.00;92793.47;5073018;28;20097;-69
2023/01/31 05:45:22;;;;;;;18.15;10.80;;;;;;;-1.98;100.00;92798.75;5072652;28;20055;-70
2023/01/31 05:47:49;;;;;;;18.92;12.07;;;;;;;-2.00;100.00;92793.03;5072680;28;20079;-69
2023/01/31 05:50:18;;;;;;;18.33;10.65;;;;;;;-1.99;100.00;92788.81;5072361;28;20098;-70
2023/01/31 05:52:50;;;;;;;17.40;10.25;;;;;;;-1.98;100.00;92813.84;5072493;28;20048;-69
2023/01/31 05:55:17;;;;;;;15.95;9.40;;;;;;;-1.95;100.00;92808.50;5072958;28;20041;-69
2023/01/31 05:57:44;;;;;;;16.35;10.57;;;;;;;-1.95;100.00;92803.47;5072365;28;20048;-69
2023/01/31 06:00:13;;;;;;;19.02;11.88;;;;;;;-1.90;100.00;92805.56;5072225;28;20052;-69
2023/01/31 06:02:40;;;;;;;15.68;9.38;;;;;;;-1.82;100.00;92808.16;5072229;28;20135;-70
2023/01/31 06:05:08;;;;;;;16.52;10.43;;;;;;;-1.90;100.00;92791.25;5072277;28;20056;-69
2023/01/31 06:07:36;;;;;;;17.73;11.00;;;;;;;-1.71;100.00;92802.09;5071655;28;20443;-70
2023/01/31 06:10:04;;;;;;;20.27;12.02;;;;;;;-1.70;100.00;92806.22;5071946;28;20772;-70
2023/01/31 06:12:31;;;;;;;20.60;12.07;;;;;;;-1.69;100.00;92810.31;5071852;28;20497;-70
2023/01/31 06:14:57;;;;;;;19.70;12.52;;;;;;;-1.66;100.00;92819.31;5064659;28;20509;-70
2023/01/31 06:17:24;;;;;;;19.92;12.52;;;;;;;-1.57;100.00;92818.41;5066473;28;20049;-69
2023/01/31 06:19:51;;;;;;;20.38;13.43;;;;;;;-1.48;100.00;92806.72;5071923;28;20048;-69
2023/01/31 06:22:18;;;;;;;20.45;12.52;;;;;;;-1.36;100.00;92808.03;5071675;28;20055;-70
2023/01/31 06:24:46;;;;;;;18.92;11.05;;;;;;;-1.40;100.00;92816.03;5063861;28;20037;-69
2023/01/31 06:27:13;;;;;;;20.48;13.70;;;;;;;-1.46;100.00;92802.31;5067235;28;20061;-69
2023/01/31 06:29:40;;;;;;;27.30;16.55;;;;;;;-1.31;100.00;92816.91;5072158;28;20135;-69
2023/01/31 06:32:06;;;;;;;27.65;16.23;;;;;;;-1.25;100.00;92822.13;5071915;28;20040;-69
2023/01/31 06:34:33;;;;;;;44.35;26.17;;;;;;;-1.27;100.00;92830.78;5072254;28;20044;-69
2023/01/31 06:37:00;;;;;;;30.95;20.10;;;;;;;-1.37;100.00;92833.38;5071586;28;20045;-69
2023/01/31 06:39:26;;;;;;;26.45;16.90;;;;;;;-1.28;100.00;92827.47;5071501;28;20456;-70
2023/01/31 06:41:54;;;;;;;41.38;22.35;;;;;;;-1.16;100.00;92832.28;5071378;28;20049;-69
2023/01/31 06:44:21;;;;;;;23.05;14.35;;;;;;;-1.15;100.00;92832.09;5071779;28;20405;-69
2023/01/31 06:46:48;;;;;;;37.40;19.23;;;;;;;-1.17;100.00;92843.31;5071585;28;20044;-69
2023/01/31 06:49:14;;;;;;;64.05;30.10;;;;;;;-1.14;100.00;92833.72;5070820;28;20052;-70
2023/01/31 06:51:41;;;;;;;24.75;14.23;;;;;;;-1.06;100.00;92830.47;5071035;28;20489;-70
2023/01/31 06:54:08;;;;;;;24.95;13.95;;;;;;;-1.15;100.00;92826.28;5071783;28;20056;-70
2023/01/31 06:56:35;;;;;;;23.85;14.00;;;;;;;-1.23;100.00;92812.72;5071485;28;20501;-70
2023/01/31 06:59:03;;;;;;;16.80;9.80;;;;;;;-1.22;100.00;92824.38;5071785;28;20370;-69
2023/01/31 07:01:30;;;;;;;17.38;9.63;;;;;;;-1.26;100.00;92830.63;5071751;28;20040;-69
2023/01/31 07:03:56;;;;;;;17.48;11.68;;;;;;;-1.26;100.00;92810.47;5071121;28;20048;-69
2023/01/31 07:06:23;;;;;;;21.90;14.32;;;;;;;-1.01;100.00;92832.53;5071247;28;20048;-70
2023/01/31 07:08:50;;;;;;;21.38;13.13;;;;;;;-1.05;100.00;92827.00;5070941;28;20536;-70
2023/01/31 07:11:16;;;;;;;21.23;13.20;;;;;;;-0.95;100.00;92839.50;5071515;28;20455;-69
2023/01/31 07:13:45;;;;;;;23.92;13.90;;;;;;;-0.91;100.00;92839.97;5070939;28;20635;-70
2023/01/31 07:16:13;;;;;;;34.58;22.08;;;;;;;-0.86;100.00;92848.69;5071265;28;20171;-70
2023/01/31 07:18:39;;;;;;;29.90;19.55;;;;;;;-0.79;100.00;92841.31;5070892;28;20493;-70
2023/01/31 07:21:06;;;;;;;35.08;22.33;;;;;;;-0.76;100.00;92835.19;5071070;28;20045;-69
2023/01/31 07:23:33;;;;;;;29.92;18.45;;;;;;;-0.68;100.00;92832.72;5070747;28;20056;-70
2023/01/31 07:26:03;;;;;;;20.08;14.15;;;;;;;-0.68;100.00;92840.28;5070873;28;20480;-69
2023/01/31 07:28:29;;;;;;;22.40;15.05;;;;;;;-0.76;100.00;92842.75;5070998;28;20474;-69
2023/01/31 07:30:56;;;;;;;20.05;13.85;;;;;;;-0.71;100.00;92843.88;5070996;28;20053;-69
2023/01/31 07:33:25;;;;;;;19.10;12.07;;;;;;;-0.85;100.00;92847.75;5070790;28;20045;-69
2023/01/31 07:35:51;;;;;;;21.23;12.50;;;;;;;-0.95;100.00;92847.84;5070901;28;20095;-69
2023/01/31 07:38:18;;;;;;;18.80;12.10;;;;;;;-0.91;100.00;92850.06;5070439;28;20045;-70
2023/01/31 07:40:45;;;;;;;20.73;14.38;;;;;;;-1.03;100.00;92852.06;5070720;28;20095;-70
2023/01/31 07:43:11;;;;;;;36.78;22.38;;;;;;;-0.97;100.00;92857.28;5070314;28;20045;-70
2023/01/31 07:45:41;;;;;;;21.55;12.80;;;;;;;-0.96;100.00;92858.09;5070538;28;20062;-69
2023/01/31 07:48:08;;;;;;;21.50;11.60;;;;;;;-0.97;100.00;92847.19;5070591;28;20048;-70
2023/01/31 07:50:36;;;;;;;28.73;17.85;;;;;;;-0.97;100.00;92843.91;5070672;28;20048;-69
2023/01/31 07:53:02;;;;;;;38.70;26.67;;;;;;;-0.90;100.00;92849.94;5070458;28;20045;-70
2023/01/31 07:55:29;;;;;;;33.20;20.45;;;;;;;-0.99;100.00;92854.13;5070318;28;20090;-70
2023/01/31 07:57:56;;;;;;;17.08;10.00;;;;;;;-1.01;100.00;92850.16;5069975;28;20386;-70
2023/01/31 08:03:35;;;;;;;16.88;10.18;;;;;;;-0.89;100.00;92848.22;5070152;28;20105;-70
2023/01/31 08:06:08;;;;;;;16.75;10.07;;;;;;;-0.79;100.00;92855.66;5069864;28;20040;-69
2023/01/31 08:08:35;;;;;;;18.52;13.05;;;;;;;-0.83;100.00;92863.50;5070023;28;20091;-70
2023/01/31 08:11:03;;;;;;;19.40;12.25;;;;;;;-0.89;100.00;92864.09;5070228;28;20073;-70
2023/01/31 08:13:30;;;;;;;15.60;11.13;;;;;;;-0.87;100.00;92862.25;5070351;28;20114;-70
2023/01/31 08:15:57;;;;;;;32.22;16.65;;;;;;;-0.73;100.00;92870.19;5069444;28;20098;-70
2023/01/31 08:18:24;;;;;;;62.67;30.98;;;;;;;-0.66;100.00;92870.41;5069945;28;20048;-70
2023/01/31 08:20:51;;;;;;;28.33;16.40;;;;;;;-0.60;100.00;92867.28;5069490;28;20044;-70
2023/01/31 08:23:19;;;;;;;31.73;18.85;;;;;;;-0.43;100.00;92860.56;5069771;28;20080;-70
2023/01/31 08:25:46;;;;;;;51.13;23.83;;;;;;;-0.28;100.00;92864.09;5069738;28;20418;-70
2023/01/31 08:28:14;;;;;;;55.15;27.67;;;;;;;-0.22;100.00;92865.25;5069812;28;20098;-70
2023/01/31 08:30:41;;;;;;;33.33;18.40;;;;;;;-0.26;100.00;92846.28;5069585;28;20075;-70
2023/01/31 08:33:08;;;;;;;36.45;19.80;;;;;;;-0.07;100.00;92850.28;5069639;28;20048;-70
2023/01/31 08:35:35;;;;;;;31.33;18.80;;;;;;;0.04;100.00;92856.00;5063141;28;20049;-70
2023/01/31 08:38:01;;;;;;;25.95;17.35;;;;;;;0.16;100.00;92852.25;5062947;28;20048;-70
2023/01/31 08:40:31;;;;;;;17.95;11.90;;;;;;;0.16;100.00;92862.34;5069322;28;20493;-68
2023/01/31 08:42:59;;;;;;;51.75;32.55;;;;;;;0.05;100.00;92870.22;5069435;28;20044;-67
2023/01/31 08:45:28;;;;;;;39.20;27.33;;;;;;;0.09;100.00;92876.53;5069236;28;20040;-67
2023/01/31 08:47:55;;;;;;;24.77;16.50;;;;;;;-0.02;100.00;92890.22;5068908;28;20095;-67
2023/01/31 08:50:23;;;;;;;20.10;12.63;;;;;;;-0.06;100.00;92869.53;5069419;28;20058;-67
2023/01/31 08:52:53;;;;;;;20.50;13.48;;;;;;;0.02;100.00;92880.59;5069218;28;20164;-67
2023/01/31 08:55:20;;;;;;;20.55;13.95;;;;;;;0.16;100.00;92864.06;5069341;28;20061;-67
2023/01/31 08:57:49;;;;;;;24.65;15.25;;;;;;;0.26;100.00;92859.69;5068672;28;20101;-67
2023/01/31 09:00:16;;;;;;;25.63;13.52;;;;;;;0.43;100.00;92867.28;5069495;28;20045;-67
2023/01/31 09:02:45;;;;;;;19.30;12.18;;;;;;;0.46;100.00;92867.75;5066002;28;20885;-67
2023/01/31 09:05:11;;;;;;;20.33;11.15;;;;;;;0.33;100.00;92872.47;5059151;28;20135;-67
2023/01/31 09:07:38;;;;;;;21.40;11.05;;;;;;;0.47;100.00;92866.03;5068792;28;20439;-68
2023/01/31 09:10:06;;;;;;;27.40;14.00;;;;;;;0.48;100.00;92867.59;5068995;28;20050;-70
2023/01/31 09:12:33;;;;;;;20.30;10.90;;;;;;;0.42;100.00;92846.28;5068237;28;20040;-70
2023/01/31 09:15:02;;;;;;;22.85;11.20;;;;;;;0.68;100.00;92862.25;5068856;28;20458;-70
2023/01/31 09:17:29;;;;;;;21.00;10.35;;;;;;;0.50;100.00;92855.59;5068430;28;20040;-70
2023/01/31 09:19:56;;;;;;;19.60;11.15;;;;;;;0.71;100.00;92861.94;5068919;28;20040;-69
2023/01/31 09:22:23;;;;;;;19.33;11.15;;;;;;;0.82;100.00;92864.13;5068330;28;20098;-68
2023/01/31 09:24:50;;;;;;;27.77;15.68;;;;;;;0.53;100.00;92860.34;5058184;28;20083;-68
2023/01/31 09:27:16;;;;;;;15.95;10.30;;;;;;;0.43;100.00;92863.03;5066906;28;20036;-68
2023/01/31 09:29:43;;;;;;;11.50;7.30;;;;;;;0.13;100.00;92845.75;5069061;28;20053;-68
2023/01/31 09:32:11;;;;;;;20.08;11.75;;;;;;;0.22;100.00;92866.78;5068534;28;20044;-68
2023/01/31 09:34:38;;;;;;;11.82;7.32;;;;;;;-0.22;100.00;92869.50;5068766;28;20416;-68
2023/01/31 09:37:05;;;;;;;14.32;8.75;;;;;;;-0.53;100.00;92827.88;5069125;28;20086;-68
2023/01/31 09:39:32;;;;;;;11.93;8.25;;;;;;;-0.33;100.00;92860.47;5068575;28;20045;-68
2023/01/31 09:42:07;;;;;;;13.52;8.73;;;;;;;-0.49;100.00;92851.88;5068703;28;20049;-69
2023/01/31 09:44:39;;;;;;;17.70;11.02;;;;;;;-0.33;100.00;92845.31;5068758;28;20078;-70
2023/01/31 09:47:14;;;;;;;14.82;9.45;;;;;;;-0.28;100.00;92808.56;5068554;28;20550;-70
2023/01/31 09:49:48;;;;;;;13.32;8.60;;;;;;;0.05;100.00;92825.53;5068429;28;20364;-70
2023/01/31 09:52:15;;;;;;;9.93;6.72;;;;;;;0.20;100.00;92827.47;5057899;28;20122;-68
2023/01/31 09:54:42;;;;;;;11.70;7.65;;;;;;;0.11;100.00;92831.72;5066716;28;20040;-68
2023/01/31 09:57:23;;;;;;;9.80;6.63;;;;;;;0.18;100.00;92816.72;5068694;28;20102;-68
2023/01/31 09:59:57;;;;;;;9.93;6.55;;;;;;;0.12;100.00;92820.66;5068908;28;20053;-68
2023/01/31 10:02:46;;;;;;;11.15;6.95;;;;;;;0.15;100.00;92817.84;5068187;28;20110;-68
2023/01/31 10:05:21;;;;;;;10.98;6.93;;;;;;;-0.10;100.00;92781.66;5068522;28;20513;-68
2023/01/31 10:07:57;;;;;;;13.32;7.43;;;;;;;0.11;100.00;92819.09;5069009;28;20048;-68
2023/01/31 10:10:35;;;;;;;12.23;7.43;;;;;;;0.22;100.00;92820.50;5067984;28;20114;-68
2023/01/31 10:13:06;;;;;;;10.63;6.72;;;;;;;0.31;100.00;92819.56;5068685;28;20040;-68
2023/01/31 10:15:41;;;;;;;8.23;6.10;;;;;;;0.02;100.00;92815.75;5068375;28;20106;-69
2023/01/31 10:18:14;;;;;;;8.38;5.63;;;;;;;-0.14;100.00;92812.25;5068512;28;20105;-69
2023/01/31 10:20:48;;;;;;;7.85;5.78;;;;;;;-0.31;100.00;92808.09;5068372;28;20041;-68
2023/01/31 10:23:22;;;;;;;8.85;5.78;;;;;;;-0.29;100.00;92819.63;5068119;28;20056;-68
2023/01/31 10:25:55;;;;;;;9.35;6.00;;;;;;;-0.25;100.00;92817.56;5065309;28;20103;-71
2023/01/31 10:28:28;;;;;;;11.75;8.70;;;;;;;-0.26;100.00;92803.38;5052886;28;20087;-70
2023/01/31 10:30:59;;;;;;;15.40;8.77;;;;;;;-0.05;100.00;92804.69;5072546;28;20056;-69
2023/01/31 10:33:38;;;;;;;15.13;8.40;;;;;;;0.09;100.00;92800.78;5071742;28;20118;-69
2023/01/31 10:36:11;;;;;;;14.60;8.25;;;;;;;0.14;100.00;92796.06;5064059;28;20096;-69
2023/01/31 10:38:46;;;;;;;14.60;8.27;;;;;;;0.28;100.00;92789.59;5061836;28;20094;-69
2023/01/31 10:41:17;;;;;;;15.95;8.35;;;;;;;0.42;100.00;92783.13;5066992;28;20103;-69
2023/01/31 10:43:48;;;;;;;8.27;6.28;;;;;;;0.29;100.00;92783.59;5070182;28;20048;-69
2023/01/31 10:46:15;;;;;;;13.60;7.80;;;;;;;0.31;100.00;92760.66;5070683;28;20057;-69
2023/01/31 10:48:45;;;;;;;14.30;9.20;;;;;;;0.42;100.00;92779.78;5071405;28;20101;-69
2023/01/31 10:51:26;;;;;;;9.43;6.28;;;;;;;0.39;100.00;92780.91;5069881;28;20052;-69
2023/01/31 10:54:11;;;;;;;21.25;10.27;;;;;;;0.72;100.00;92769.97;5061384;28;20457;-69
2023/01/31 10:56:42;;;;;;;21.40;10.38;;;;;;;0.97;100.00;92775.78;5071065;28;20045;-71
2023/01/31 10:59:16;;;;;;;30.38;14.25;;;;;;;1.00;100.00;92755.22;5071391;28;20105;-70
2023/01/31 11:01:42;;;;;;;39.60;16.00;;;;;;;0.83;100.00;92769.63;5071110;28;20041;-70
2023/01/31 11:04:26;;;;;;;43.15;19.45;;;;;;;0.84;100.00;92765.38;5071254;28;20094;-69
2023/01/31 11:06:53;;;;;;;10.20;7.20;;;;;;;0.64;100.00;92760.66;5071310;28;20102;-69
2023/01/31 11:09:22;;;;;;;9.93;6.18;;;;;;;0.69;100.00;92760.19;5071277;28;20044;-69
2023/01/31 11:11:56;;;;;;;17.50;7.13;;;;;;;0.88;100.00;92772.47;5051786;28;20127;-69
2023/01/31 11:14:23;;;;;;;6.65;4.28;;;;;;;0.77;100.00;92760.16;5062766;28;20423;-69
2023/01/31 11:16:58;;;;;;;10.98;5.60;;;;;;;0.87;100.00;92770.09;5071414;28;20052;-69
2023/01/31 11:19:34;;;;;;;7.10;5.28;;;;;;;0.79;100.00;92781.03;5070915;28;20489;-69
2023/01/31 11:22:02;;;;;;;10.02;5.70;;;;;;;1.02;100.00;92773.53;5071032;28;21080;-69
2023/01/31 11:24:32;;;;;;;17.67;7.03;;;;;;;0.98;100.00;92769.78;5070873;28;20102;-69
2023/01/31 11:27:02;;;;;;;8.10;5.05;;;;;;;1.02;100.00;92783.66;5056082;28;20037;-69
2023/01/31 11:29:32;;;;;;;11.82;7.15;;;;;;;0.70;100.00;92792.09;5060505;28;20052;-69
2023/01/31 11:32:01;;;;;;;14.00;7.55;;;;;;;0.71;100.00;92784.38;5070678;28;20097;-69
2023/01/31 11:34:30;;;;;;;11.27;6.63;;;;;;;0.61;100.00;92779.44;5071038;28;20122;-69